Time;durP1;ratioP1;P1;durP2;ratioP2;P2;SDS_P1;SDS_P2;PMS_P1;PMS_P2;Temp;Humidity;BMP_temperature;BMP_pressure;BME280_temperature;BME280_humidity;BME280_pressure;Samples;Min_cycle;Max_cycle;Signal;HPM_P1;HPM_P2
2021/03/18 00:00:27;;;;;;;7.93;7.10;;;;;;;3.38;39.38;102035.81;4967838;28;97294;-73
2021/03/18 00:02:54;;;;;;;7.10;6.50;;;;;;;3.40;39.48;102035.94;4967252;28;100197;-72
2021/03/18 00:05:22;;;;;;;7.38;6.68;;;;;;;3.39;39.38;102040.25;4987186;28;97820;-72
2021/03/18 00:07:49;;;;;;;6.97;6.40;;;;;;;3.31;40.15;102035.28;4954225;28;96995;-73
2021/03/18 00:10:17;;;;;;;6.72;6.20;;;;;;;3.32;39.41;102040.66;4970939;28;96952;-72
2021/03/18 00:13:03;;;;;;;7.00;6.50;;;;;;;3.31;39.81;102040.53;4999094;27;98198;-73
2021/03/18 00:15:31;;;;;;;6.60;6.10;;;;;;;3.31;39.60;102043.19;4968904;28;98816;-72
2021/03/18 00:17:58;;;;;;;7.53;7.00;;;;;;;3.27;39.59;102036.78;4987140;28;96962;-72
2021/03/18 00:20:46;;;;;;;7.40;6.50;;;;;;;3.28;40.22;102038.59;4969270;28;96779;-72
2021/03/18 00:23:13;;;;;;;7.82;7.00;;;;;;;3.30;39.90;102039.63;5009112;27;100588;-73
2021/03/18 00:25:41;;;;;;;7.07;6.50;;;;;;;3.32;39.52;102051.16;4972453;28;98074;-72
2021/03/18 00:28:08;;;;;;;6.97;6.40;;;;;;;3.32;39.89;102039.72;4990373;28;96828;-73
2021/03/18 00:30:36;;;;;;;7.00;6.50;;;;;;;3.28;39.59;102042.97;4972273;28;96917;-72
2021/03/18 00:33:03;;;;;;;9.73;7.00;;;;;;;3.28;39.60;102033.34;4971812;28;98409;-71
2021/03/18 00:35:30;;;;;;;6.90;6.30;;;;;;;3.24;39.95;102026.03;5008626;28;97899;-73
2021/03/18 00:37:58;;;;;;;7.13;6.53;;;;;;;3.25;39.50;102035.75;4973230;28;97314;-73
2021/03/18 00:40:28;;;;;;;7.35;6.72;;;;;;;3.29;39.58;102031.63;4988418;28;96902;-72
2021/03/18 00:42:57;;;;;;;7.60;6.78;;;;;;;3.25;40.05;102027.88;5007744;28;96632;-73
2021/03/18 00:45:26;;;;;;;7.28;6.68;;;;;;;3.27;40.10;102021.00;4983919;28;99490;-73
2021/03/18 00:47:54;;;;;;;7.90;7.28;;;;;;;3.23;39.94;102013.69;4970409;28;97434;-73
2021/03/18 00:50:27;;;;;;;7.13;6.45;;;;;;;3.32;39.69;102016.03;4971859;28;97269;-72
2021/03/18 00:52:54;;;;;;;7.55;6.85;;;;;;;3.28;39.86;102020.19;4988050;28;97032;-73
2021/03/18 00:55:22;;;;;;;8.00;6.88;;;;;;;3.27;39.98;102015.75;4988507;28;97700;-73
2021/03/18 00:57:49;;;;;;;6.97;6.47;;;;;;;3.28;39.58;102021.94;5005149;28;97005;-73
2021/03/18 01:00:19;;;;;;;8.25;7.35;;;;;;;3.24;40.14;102026.94;4987114;28;96894;-72
2021/03/18 01:02:50;;;;;;;11.18;7.47;;;;;;;3.26;40.03;102018.28;4984535;28;97734;-73
2021/03/18 01:05:23;;;;;;;7.35;6.70;;;;;;;3.23;39.79;102014.63;4971528;28;97621;-72
2021/03/18 01:07:50;;;;;;;8.13;7.43;;;;;;;3.28;39.92;102016.66;5003706;27;96876;-75
2021/03/18 01:10:18;;;;;;;8.38;7.55;;;;;;;3.36;39.92;102019.00;5005414;28;96941;-72
2021/03/18 01:12:45;;;;;;;7.38;6.68;;;;;;;3.36;39.28;102024.28;4989873;28;98562;-73
2021/03/18 01:15:13;;;;;;;8.82;7.05;;;;;;;3.29;39.54;102019.41;4975647;28;97256;-73
2021/03/18 01:17:41;;;;;;;7.20;6.65;;;;;;;3.28;39.98;102017.56;5007347;28;97238;-73
2021/03/18 01:20:12;;;;;;;7.30;6.57;;;;;;;3.27;39.79;102018.38;4970395;28;96958;-73
2021/03/18 01:22:40;;;;;;;8.18;7.57;;;;;;;3.22;39.98;102011.88;5005474;28;98251;-73
2021/03/18 01:25:08;;;;;;;8.63;7.72;;;;;;;3.21;39.63;102021.47;4957662;28;99032;-73
2021/03/18 01:27:36;;;;;;;7.93;7.18;;;;;;;3.22;39.73;102017.16;4987202;28;97007;-73
2021/03/18 01:30:07;;;;;;;8.48;7.40;;;;;;;3.28;39.38;102014.91;4971904;28;97047;-73
2021/03/18 01:32:36;;;;;;;7.40;6.80;;;;;;;3.16;39.52;102012.38;4970248;28;96868;-73
2021/03/18 01:35:07;;;;;;;9.57;7.30;;;;;;;3.13;39.96;102011.25;5004099;27;97998;-73
2021/03/18 01:37:34;;;;;;;7.75;6.95;;;;;;;3.14;39.75;102018.31;5002569;28;97267;-73
2021/03/18 01:40:03;;;;;;;7.75;7.15;;;;;;;3.17;39.78;102008.00;4988442;28;96904;-73
2021/03/18 01:42:30;;;;;;;7.43;6.82;;;;;;;3.14;40.10;102006.09;4957819;28;97040;-73
2021/03/18 01:44:57;;;;;;;8.68;7.85;;;;;;;3.12;39.96;102014.66;4974460;28;99245;-72
2021/03/18 01:47:24;;;;;;;8.63;7.88;;;;;;;3.14;40.11;102007.78;4975341;28;96825;-73
2021/03/18 01:49:51;;;;;;;7.75;7.05;;;;;;;3.08;40.29;102002.09;4973564;28;97582;-72
2021/03/18 01:52:18;;;;;;;8.48;7.53;;;;;;;3.06;39.79;102014.22;4989825;28;98586;-72
2021/03/18 01:54:45;;;;;;;7.55;6.82;;;;;;;3.02;39.96;102009.56;4991043;28;98553;-72
2021/03/18 01:57:13;;;;;;;8.10;7.40;;;;;;;3.00;40.37;102009.44;4974350;28;97503;-72
2021/03/18 01:59:40;;;;;;;7.68;6.90;;;;;;;2.97;40.33;102014.50;4973239;28;96900;-73
2021/03/18 02:02:07;;;;;;;7.85;7.15;;;;;;;2.98;39.81;102018.94;4968884;28;99479;-73
2021/03/18 02:04:35;;;;;;;8.85;8.00;;;;;;;2.94;40.43;102010.72;5008222;28;99342;-72
2021/03/18 02:07:02;;;;;;;7.72;6.95;;;;;;;2.90;40.17;102011.31;4974116;28;96759;-72
2021/03/18 02:09:29;;;;;;;8.90;8.07;;;;;;;2.86;39.87;102011.88;5003145;28;97667;-72
2021/03/18 02:11:56;;;;;;;8.35;7.55;;;;;;;2.76;40.69;102009.41;4972146;28;97810;-72
2021/03/18 02:14:24;;;;;;;8.40;7.60;;;;;;;2.76;40.71;102007.72;4975592;28;97834;-72
2021/03/18 02:16:54;;;;;;;8.18;7.47;;;;;;;2.71;40.73;102002.94;4973434;28;97343;-73
2021/03/18 02:19:44;;;;;;;8.30;6.82;;;;;;;2.76;40.80;102012.03;4990994;28;96929;-72
2021/03/18 02:22:43;;;;;;;7.40;6.70;;;;;;;2.72;40.71;102007.38;4972307;28;98153;-71
2021/03/18 02:25:14;;;;;;;8.00;7.30;;;;;;;2.64;40.63;102009.44;4986268;28;97763;-73
2021/03/18 02:28:12;;;;;;;10.73;7.90;;;;;;;2.67;40.49;102014.94;4954912;28;96825;-73
2021/03/18 02:30:53;;;;;;;10.43;7.78;;;;;;;2.56;40.81;102009.69;4953672;28;96953;-72
2021/03/18 02:33:57;;;;;;;8.38;7.38;;;;;;;2.54;40.37;102008.66;4970750;28;99725;-72
2021/03/18 02:36:30;;;;;;;8.45;7.85;;;;;;;2.53;40.56;102009.47;4970877;28;99554;-73
2021/03/18 02:39:01;;;;;;;7.90;7.10;;;;;;;2.53;40.79;102002.50;4970036;28;97421;-73
2021/03/18 02:41:30;;;;;;;8.18;7.38;;;;;;;2.52;40.56;102007.63;5001859;28;96810;-72
2021/03/18 02:44:03;;;;;;;10.55;8.23;;;;;;;2.48;40.97;102002.97;4970220;28;101053;-73
2021/03/18 02:46:30;;;;;;;8.13;7.38;;;;;;;2.43;40.70;101999.09;4948109;28;97881;-73
2021/03/18 02:49:02;;;;;;;8.90;8.10;;;;;;;2.42;40.46;102002.53;4968631;28;97458;-73
2021/03/18 02:51:32;;;;;;;8.27;7.47;;;;;;;2.38;40.46;101998.78;4952459;28;97357;-72
2021/03/18 02:54:03;;;;;;;8.18;7.47;;;;;;;2.40;40.96;101996.25;4970270;28;97584;-73
2021/03/18 02:56:31;;;;;;;9.05;7.40;;;;;;;2.40;40.56;101989.25;4989061;28;97486;-72
2021/03/18 02:58:59;;;;;;;8.60;7.78;;;;;;;2.40;40.87;101991.00;4974449;28;96729;-73
2021/03/18 03:01:28;;;;;;;7.85;7.15;;;;;;;2.46;40.77;101994.97;5000535;28;97141;-72
2021/03/18 03:03:56;;;;;;;8.13;7.38;;;;;;;2.37;40.94;101993.38;4969897;28;97276;-72
2021/03/18 03:06:25;;;;;;;9.43;8.57;;;;;;;2.36;40.80;101997.75;4998910;28;97691;-72
2021/03/18 03:08:52;;;;;;;7.63;7.03;;;;;;;2.33;40.71;101989.63;4972371;28;97150;-73
2021/03/18 03:11:21;;;;;;;7.95;7.30;;;;;;;2.27;40.64;101991.81;4985941;28;96866;-73
2021/03/18 03:13:48;;;;;;;8.18;7.38;;;;;;;2.25;40.71;101982.00;4970641;28;100146;-72
2021/03/18 03:16:18;;;;;;;8.13;7.38;;;;;;;2.20;41.48;101984.25;4968903;28;98496;-72
2021/03/18 03:18:46;;;;;;;8.55;7.78;;;;;;;2.10;40.88;101973.91;4955311;28;96843;-73
2021/03/18 03:21:14;;;;;;;8.27;7.60;;;;;;;2.08;41.41;101975.47;4968342;28;96838;-73
2021/03/18 03:23:41;;;;;;;8.75;7.40;;;;;;;1.94;41.72;101973.53;5003865;28;98384;-73
2021/03/18 03:26:09;;;;;;;9.80;8.20;;;;;;;1.88;40.90;101981.88;4970451;28;99898;-72
2021/03/18 03:28:37;;;;;;;8.55;7.85;;;;;;;1.77;41.34;101972.25;4997925;28;96758;-73
2021/03/18 03:31:04;;;;;;;13.68;8.95;;;;;;;1.73;41.56;101982.41;4968288;28;96916;-72
2021/03/18 03:33:31;;;;;;;8.35;7.53;;;;;;;1.61;41.48;101977.16;4970474;28;101242;-71
2021/03/18 03:35:59;;;;;;;8.07;7.30;;;;;;;1.55;42.01;101976.69;4970490;28;98961;-73
2021/03/18 03:38:27;;;;;;;9.40;7.72;;;;;;;1.51;42.19;101984.19;4987256;28;96793;-71
2021/03/18 03:40:55;;;;;;;9.23;7.85;;;;;;;1.52;41.91;101980.78;4971092;28;97539;-73
2021/03/18 03:43:23;;;;;;;8.30;7.50;;;;;;;1.51;41.70;101974.63;4987266;28;97081;-72
2021/03/18 03:45:51;;;;;;;8.68;7.80;;;;;;;1.51;41.66;101968.44;4970809;28;97803;-72
2021/03/18 03:48:18;;;;;;;8.73;7.97;;;;;;;1.49;41.47;101976.22;4973063;28;96829;-72
2021/03/18 03:50:46;;;;;;;9.07;8.13;;;;;;;1.50;41.45;101967.56;4968962;28;96851;-72
2021/03/18 03:53:17;;;;;;;11.05;8.00;;;;;;;1.54;41.63;101976.56;4970211;28;97972;-72
2021/03/18 03:55:48;;;;;;;8.15;7.45;;;;;;;1.53;41.32;101966.84;4988832;28;96786;-72
2021/03/18 03:58:23;;;;;;;8.15;7.45;;;;;;;1.57;41.60;101964.59;5005857;28;97310;-72
2021/03/18 04:00:51;;;;;;;9.90;8.40;;;;;;;1.60;41.45;101954.34;4990364;28;97007;-72
2021/03/18 04:03:18;;;;;;;8.63;7.68;;;;;;;1.63;41.90;101951.97;4982670;28;98657;-72
2021/03/18 04:05:46;;;;;;;10.02;8.52;;;;;;;1.66;41.33;101948.63;4986045;28;97549;-72
2021/03/18 04:08:15;;;;;;;9.68;8.85;;;;;;;1.67;41.38;101950.47;4995918;28;97360;-73
2021/03/18 04:10:42;;;;;;;9.07;8.15;;;;;;;1.68;41.70;101947.03;4955472;28;97211;-72
2021/03/18 04:13:11;;;;;;;8.50;7.68;;;;;;;1.71;40.92;101955.13;4979271;28;96817;-72
2021/03/18 04:15:38;;;;;;;8.50;7.65;;;;;;;1.68;41.66;101958.47;4973098;28;99492;-72
2021/03/18 04:18:07;;;;;;;9.35;8.45;;;;;;;1.68;40.88;101950.59;4976273;28;96668;-72
2021/03/18 04:20:36;;;;;;;9.10;8.32;;;;;;;1.71;41.44;101952.50;4968080;28;97003;-73
2021/03/18 04:23:06;;;;;;;8.75;7.95;;;;;;;1.66;41.72;101946.94;5007723;28;100105;-72
2021/03/18 04:25:33;;;;;;;8.27;7.57;;;;;;;1.63;41.95;101943.16;4968044;28;99194;-73
2021/03/18 04:28:00;;;;;;;9.10;8.30;;;;;;;1.60;41.65;101949.09;4956981;28;96928;-73
2021/03/18 04:30:29;;;;;;;9.50;8.70;;;;;;;1.63;41.66;101949.34;4973757;28;96834;-73
2021/03/18 04:32:58;;;;;;;11.20;8.20;;;;;;;1.65;41.47;101946.81;4955471;28;98384;-72
2021/03/18 04:35:27;;;;;;;9.52;8.60;;;;;;;1.66;41.22;101949.56;4959497;28;99701;-73
2021/03/18 04:37:55;;;;;;;9.05;8.15;;;;;;;1.65;41.44;101952.06;4976678;28;97446;-72
2021/03/18 04:40:22;;;;;;;9.50;8.75;;;;;;;1.63;41.13;101951.97;4993586;28;96935;-72
2021/03/18 04:42:50;;;;;;;9.60;8.63;;;;;;;1.64;41.70;101943.28;4975623;28;96923;-72
2021/03/18 04:45:19;;;;;;;10.02;8.95;;;;;;;1.58;41.08;101940.19;4975202;28;96964;-72
2021/03/18 04:47:48;;;;;;;9.23;8.32;;;;;;;1.59;41.57;101936.78;4968557;28;97574;-72
2021/03/18 04:50:18;;;;;;;9.40;8.52;;;;;;;1.55;41.31;101945.22;5004850;28;96794;-71
2021/03/18 04:52:46;;;;;;;9.40;8.50;;;;;;;1.53;41.58;101946.81;4992092;28;98490;-71
2021/03/18 04:55:17;;;;;;;10.50;9.23;;;;;;;1.48;42.21;101932.44;4973764;28;96961;-73
2021/03/18 04:57:47;;;;;;;12.13;9.43;;;;;;;1.48;41.83;101940.31;4978078;28;96729;-72
2021/03/18 05:00:17;;;;;;;9.25;8.52;;;;;;;1.47;42.01;101942.81;4959845;28;97041;-72
2021/03/18 05:02:45;;;;;;;10.07;9.07;;;;;;;1.44;41.33;101940.84;4945305;28;98548;-72
2021/03/18 05:05:18;;;;;;;10.68;9.57;;;;;;;1.43;41.60;101941.66;4975667;28;96605;-72
2021/03/18 05:07:48;;;;;;;12.75;10.35;;;;;;;1.44;41.46;101937.31;4952659;28;96921;-72
2021/03/18 05:10:17;;;;;;;10.57;9.35;;;;;;;1.44;41.90;101927.75;4952269;28;97310;-72
2021/03/18 05:12:44;;;;;;;12.45;11.13;;;;;;;1.43;41.75;101938.13;4970926;28;97507;-73
2021/03/18 05:15:13;;;;;;;10.57;9.60;;;;;;;1.44;41.79;101930.38;4978670;28;96782;-72
2021/03/18 05:17:40;;;;;;;10.10;9.15;;;;;;;1.42;41.40;101920.53;4974027;28;96849;-72
2021/03/18 05:20:10;;;;;;;10.68;9.45;;;;;;;1.43;41.27;101923.31;4972458;28;96869;-72
2021/03/18 05:22:38;;;;;;;11.55;9.10;;;;;;;1.44;41.63;101917.25;4974056;28;99735;-72
2021/03/18 05:25:09;;;;;;;10.75;9.65;;;;;;;1.48;41.77;101924.56;4969608;28;97759;-72
2021/03/18 05:27:37;;;;;;;10.70;9.70;;;;;;;1.51;41.42;101921.25;4967205;28;96854;-73
2021/03/18 05:30:07;;;;;;;22.88;13.45;;;;;;;1.50;41.66;101924.69;4970305;28;96896;-73
2021/03/18 05:32:34;;;;;;;27.08;14.73;;;;;;;1.50;41.07;101917.72;4970574;28;99598;-73
2021/03/18 05:35:03;;;;;;;18.38;13.40;;;;;;;1.51;41.62;101923.88;4968364;28;96828;-73
2021/03/18 05:37:36;;;;;;;22.38;15.90;;;;;;;1.51;41.41;101927.41;4954561;28;97451;-75
2021/03/18 05:40:07;;;;;;;16.75;13.07;;;;;;;1.53;41.49;101920.56;4972509;28;97404;-73
2021/03/18 05:42:34;;;;;;;13.35;11.23;;;;;;;1.51;41.51;101924.78;4971110;28;96842;-72
2021/03/18 05:45:02;;;;;;;11.80;10.60;;;;;;;1.51;41.14;101922.16;4970510;28;97897;-71
2021/03/18 05:47:29;;;;;;;12.20;11.00;;;;;;;1.52;41.96;101924.00;5003203;28;97112;-72
2021/03/18 05:49:58;;;;;;;13.32;10.02;;;;;;;1.55;41.15;101931.16;4942469;28;97250;-71
2021/03/18 05:52:26;;;;;;;11.65;10.45;;;;;;;1.55;41.54;101924.22;4970166;28;97466;-70
2021/03/18 05:54:54;;;;;;;11.07;10.02;;;;;;;1.53;41.27;101936.31;5002102;28;97531;-72
2021/03/18 05:57:23;;;;;;;10.68;9.63;;;;;;;1.52;41.50;101924.00;4969544;28;96776;-72
2021/03/18 05:59:51;;;;;;;12.05;10.63;;;;;;;1.55;41.75;101933.78;4968575;28;96865;-72
2021/03/18 06:02:18;;;;;;;11.95;10.77;;;;;;;1.57;41.84;101934.81;4965497;28;97260;-72
2021/03/18 06:04:45;;;;;;;12.32;10.70;;;;;;;1.55;41.43;101934.72;4967118;28;98685;-72
2021/03/18 06:07:12;;;;;;;14.30;11.27;;;;;;;1.57;41.59;101937.44;4985593;28;97527;-71
2021/03/18 06:09:39;;;;;;;11.48;10.25;;;;;;;1.57;41.47;101943.63;4950791;28;96972;-72
2021/03/18 06:12:07;;;;;;;11.27;10.18;;;;;;;1.60;41.13;101938.59;4980098;28;100467;-72
2021/03/18 06:14:35;;;;;;;11.68;10.40;;;;;;;1.63;41.43;101935.31;4981158;28;97715;-71
2021/03/18 06:17:02;;;;;;;13.23;11.57;;;;;;;1.64;41.41;101932.78;4958663;28;96999;-71
2021/03/18 06:19:30;;;;;;;13.32;11.05;;;;;;;1.69;41.35;101938.38;4947570;28;97265;-71
2021/03/18 06:21:58;;;;;;;14.02;10.55;;;;;;;1.69;41.11;101934.03;4973059;28;97797;-72
2021/03/18 06:24:27;;;;;;;12.90;10.98;;;;;;;1.69;41.61;101941.91;4968208;28;99249;-71
2021/03/18 06:26:55;;;;;;;15.38;11.45;;;;;;;1.72;41.19;101934.28;4967892;28;96899;-72
2021/03/18 06:29:42;;;;;;;12.10;10.88;;;;;;;1.74;41.87;101934.38;4969449;28;96989;-71
2021/03/18 06:32:17;;;;;;;12.20;10.82;;;;;;;1.76;41.16;101931.06;4985631;28;99996;-72
2021/03/18 06:34:46;;;;;;;11.90;10.68;;;;;;;1.75;41.03;101924.00;4968957;28;97745;-72
2021/03/18 06:37:33;;;;;;;13.13;11.32;;;;;;;1.81;41.50;101913.97;5002150;28;97270;-70
2021/03/18 06:40:14;;;;;;;11.82;10.65;;;;;;;1.72;41.34;101923.78;4952617;28;96945;-72
2021/03/18 06:43:01;;;;;;;12.52;10.95;;;;;;;1.74;41.44;101926.53;4971540;28;99114;-72
2021/03/18 06:45:30;;;;;;;12.27;11.07;;;;;;;1.75;41.32;101920.47;4986288;28;100067;-72
2021/03/18 06:48:00;;;;;;;13.27;11.20;;;;;;;1.78;40.88;101924.22;4966934;28;97465;-74
2021/03/18 06:50:31;;;;;;;15.57;12.10;;;;;;;1.76;41.18;101920.56;4970550;28;97251;-73
2021/03/18 06:52:58;;;;;;;13.88;11.55;;;;;;;1.75;41.08;101921.38;4950301;28;97000;-73
2021/03/18 06:55:27;;;;;;;13.27;11.88;;;;;;;1.77;41.17;101906.66;4969332;28;97829;-73
2021/03/18 06:58:18;;;;;;;13.65;10.80;;;;;;;1.80;41.26;101911.22;4952050;28;96934;-72
2021/03/18 07:00:48;;;;;;;13.85;12.25;;;;;;;1.77;41.67;101906.66;4991325;28;97429;-73
2021/03/18 07:03:29;;;;;;;15.07;12.65;;;;;;;1.78;41.31;101905.84;4955206;28;97394;-73
2021/03/18 07:05:58;;;;;;;15.18;11.80;;;;;;;1.79;40.88;101898.91;4960468;28;96939;-72
2021/03/18 07:08:27;;;;;;;14.73;11.55;;;;;;;1.78;41.02;101892.72;4982994;28;97006;-72
2021/03/18 07:10:55;;;;;;;15.95;12.88;;;;;;;1.81;41.24;101898.22;4977177;28;97329;-73
2021/03/18 07:13:24;;;;;;;15.25;12.77;;;;;;;1.83;40.93;101899.25;4954195;28;99788;-73
2021/03/18 07:15:54;;;;;;;17.55;12.05;;;;;;;1.81;41.59;101902.56;4995988;28;99792;-73
2021/03/18 07:18:22;;;;;;;15.45;12.18;;;;;;;1.85;41.11;101899.38;4973073;28;97127;-73
2021/03/18 07:21:03;;;;;;;16.25;12.63;;;;;;;1.90;41.45;101893.66;4964366;28;97255;-73
2021/03/18 07:23:37;;;;;;;16.55;13.15;;;;;;;1.93;41.47;101888.63;4991578;28;99093;-73
2021/03/18 07:26:14;;;;;;;15.20;11.98;;;;;;;2.00;41.56;101892.59;4943996;28;100079;-72
2021/03/18 07:28:42;;;;;;;14.88;11.75;;;;;;;2.05;41.31;101892.13;4955950;28;96999;-72
2021/03/18 07:31:12;;;;;;;16.83;12.88;;;;;;;2.10;40.95;101888.19;4963608;28;97331;-73
2021/03/18 07:33:40;;;;;;;16.55;12.88;;;;;;;2.15;41.42;101892.03;4949649;28;97335;-72
2021/03/18 07:36:08;;;;;;;13.80;11.02;;;;;;;2.23;41.26;101884.72;4945979;28;100245;-73
2021/03/18 07:38:36;;;;;;;15.93;12.50;;;;;;;2.25;41.39;101883.13;4959088;28;97093;-73
2021/03/18 07:41:04;;;;;;;17.92;13.52;;;;;;;2.29;41.54;101879.00;4961096;28;97050;-72
2021/03/18 07:43:31;;;;;;;13.25;11.57;;;;;;;2.29;40.87;101879.00;4944701;28;98227;-73
2021/03/18 07:46:00;;;;;;;18.92;13.38;;;;;;;2.34;41.17;101881.16;4962545;28;97581;-73
2021/03/18 07:48:30;;;;;;;20.73;13.35;;;;;;;2.40;40.53;101880.69;4991747;28;97269;-73
2021/03/18 07:50:59;;;;;;;15.88;13.38;;;;;;;2.46;41.33;101879.38;4963154;28;97241;-73
2021/03/18 07:53:27;;;;;;;19.58;13.20;;;;;;;2.53;41.04;101875.50;4959739;28;99269;-72
2021/03/18 07:55:55;;;;;;;19.15;14.20;;;;;;;2.60;40.68;101880.38;4940741;28;99868;-72
2021/03/18 07:58:39;;;;;;;16.58;12.70;;;;;;;2.69;41.34;101875.75;4974759;28;98667;-71
2021/03/18 08:01:06;;;;;;;17.65;12.85;;;;;;;2.72;40.68;101868.06;4960829;28;98149;-72
2021/03/18 08:03:35;;;;;;;17.33;13.35;;;;;;;2.79;40.68;101878.22;4954951;28;97723;-71
2021/03/18 08:06:03;;;;;;;18.23;13.80;;;;;;;2.85;40.55;101860.25;4961333;28;96767;-71
2021/03/18 08:08:39;;;;;;;19.98;14.63;;;;;;;2.89;40.58;101859.66;4957603;28;97123;-72
2021/03/18 08:11:08;;;;;;;17.77;12.93;;;;;;;2.96;40.40;101873.34;4963172;28;97096;-72
2021/03/18 08:13:36;;;;;;;18.35;13.57;;;;;;;3.00;40.10;101861.31;4978271;28;97423;-72
2021/03/18 08:16:06;;;;;;;22.70;14.95;;;;;;;3.07;40.44;101871.44;4942829;28;96896;-73
2021/03/18 08:18:39;;;;;;;19.88;15.15;;;;;;;3.11;40.40;101866.47;4950674;28;96882;-72
2021/03/18 08:21:10;;;;;;;20.77;14.80;;;;;;;3.17;40.77;101865.97;4977265;28;96865;-73
2021/03/18 08:24:02;;;;;;;18.77;14.00;;;;;;;3.23;41.02;101871.66;4946869;28;98053;-72
2021/03/18 08:26:42;;;;;;;20.42;14.75;;;;;;;3.28;40.63;101870.25;4959936;28;99618;-72
2021/03/18 08:29:25;;;;;;;17.67;13.65;;;;;;;3.34;40.15;101870.66;4998562;27;97906;-72
2021/03/18 08:32:00;;;;;;;18.77;14.73;;;;;;;3.42;40.28;101874.75;4951073;28;96921;-72
2021/03/18 08:34:49;;;;;;;20.90;15.65;;;;;;;3.50;40.67;101869.97;4934987;28;99079;-73
2021/03/18 08:37:31;;;;;;;21.58;15.05;;;;;;;3.55;41.29;101877.34;4955374;28;100228;-73
2021/03/18 08:40:00;;;;;;;19.67;14.50;;;;;;;3.59;40.32;101868.88;4934882;28;97402;-73
2021/03/18 08:42:39;;;;;;;17.13;14.13;;;;;;;3.71;40.14;101875.00;4982269;28;98317;-72
2021/03/18 08:45:27;;;;;;;22.67;15.00;;;;;;;3.77;40.28;101869.22;4945127;28;97678;-72
2021/03/18 08:47:57;;;;;;;19.55;15.00;;;;;;;3.89;39.92;101868.28;4950964;28;97299;-72
2021/03/18 08:50:52;;;;;;;17.65;14.50;;;;;;;4.04;40.33;101869.25;4955334;28;96974;-73
2021/03/18 08:53:27;;;;;;;21.60;15.90;;;;;;;4.17;39.86;101863.97;4977664;28;98072;-73
2021/03/18 08:55:53;;;;;;;18.02;13.85;;;;;;;4.29;39.59;101855.03;4943864;28;98937;-74
2021/03/18 08:58:21;;;;;;;22.40;14.88;;;;;;;4.34;39.69;101858.84;4985823;28;98069;-72
2021/03/18 09:00:48;;;;;;;23.23;15.15;;;;;;;4.39;39.74;101850.44;4984184;28;96996;-72
2021/03/18 09:03:16;;;;;;;23.40;15.52;;;;;;;4.45;39.56;101850.81;4959141;28;97129;-73
2021/03/18 09:05:53;;;;;;;24.52;15.55;;;;;;;4.52;39.81;101852.13;4960834;28;98452;-73
2021/03/18 09:08:24;;;;;;;20.80;14.73;;;;;;;4.53;39.61;101856.56;4962237;28;96943;-75
2021/03/18 09:10:53;;;;;;;22.95;15.15;;;;;;;4.58;39.77;101855.13;4979523;28;96887;-74
2021/03/18 09:13:22;;;;;;;29.13;17.65;;;;;;;4.66;39.70;101848.63;4963417;28;96891;-73
2021/03/18 09:15:52;;;;;;;23.50;16.50;;;;;;;4.72;39.38;101848.97;4958865;28;98410;-74
2021/03/18 09:18:22;;;;;;;24.20;16.60;;;;;;;4.80;39.26;101845.09;4949236;28;97354;-73
2021/03/18 09:21:12;;;;;;;25.08;15.77;;;;;;;4.90;39.09;101844.84;4991076;27;97554;-74
2021/03/18 09:23:41;;;;;;;22.38;15.73;;;;;;;4.90;39.20;101845.75;4964973;28;97232;-74
2021/03/18 09:26:10;;;;;;;23.02;16.35;;;;;;;4.94;39.38;101845.13;4963249;28;96847;-71
2021/03/18 09:28:39;;;;;;;25.08;16.77;;;;;;;4.97;39.24;101847.03;4967453;28;100759;-74
2021/03/18 09:31:06;;;;;;;25.42;16.23;;;;;;;5.02;38.84;101840.31;4981708;28;97230;-73
2021/03/18 09:33:35;;;;;;;25.08;16.95;;;;;;;5.06;39.05;101840.59;4997175;28;97223;-73
2021/03/18 09:36:05;;;;;;;27.92;18.17;;;;;;;5.08;39.30;101835.44;4964434;28;97059;-74
2021/03/18 09:38:59;;;;;;;27.17;17.92;;;;;;;5.17;39.14;101841.25;4996641;28;97089;-72
2021/03/18 09:41:27;;;;;;;26.95;17.10;;;;;;;5.26;38.82;101839.19;4967146;28;97382;-73
2021/03/18 09:44:03;;;;;;;27.35;16.90;;;;;;;5.36;39.11;101838.00;4979334;28;97048;-73
2021/03/18 09:46:31;;;;;;;29.65;18.67;;;;;;;5.46;38.63;101832.41;4999377;27;98474;-73
2021/03/18 09:48:58;;;;;;;23.60;17.05;;;;;;;5.49;38.77;101837.84;4951788;28;98464;-73
2021/03/18 09:51:25;;;;;;;29.33;17.23;;;;;;;5.57;38.45;101836.59;4963744;28;97113;-72
2021/03/18 09:53:59;;;;;;;25.73;17.13;;;;;;;5.67;38.66;101833.66;4986801;27;96959;-73
2021/03/18 09:56:28;;;;;;;28.58;17.90;;;;;;;5.78;38.45;101830.81;4957998;28;99723;-72
2021/03/18 09:58:55;;;;;;;26.00;18.08;;;;;;;5.85;38.71;101830.31;4965537;28;98792;-73
2021/03/18 10:01:23;;;;;;;24.45;17.30;;;;;;;5.92;38.42;101827.19;4976796;28;96969;-73
2021/03/18 10:03:55;;;;;;;24.48;17.63;;;;;;;5.91;38.49;101824.47;4979031;28;97633;-72
2021/03/18 10:06:27;;;;;;;24.80;16.88;;;;;;;5.85;38.51;101825.03;4961843;28;97313;-72
2021/03/18 10:09:19;;;;;;;27.90;16.92;;;;;;;5.87;38.72;101826.03;4962118;28;98271;-72
2021/03/18 10:11:48;;;;;;;25.77;17.20;;;;;;;5.91;38.32;101816.56;4979650;28;97261;-72
2021/03/18 10:14:16;;;;;;;26.40;16.83;;;;;;;6.04;38.15;101817.34;4962319;28;97346;-72
2021/03/18 10:16:58;;;;;;;27.08;16.75;;;;;;;6.11;38.30;101808.94;4983575;28;97141;-72
2021/03/18 10:19:28;;;;;;;25.38;16.83;;;;;;;6.05;38.03;101812.97;4962945;28;96841;-72
2021/03/18 10:21:56;;;;;;;28.00;18.95;;;;;;;6.11;38.34;101803.63;4961001;28;96963;-72
2021/03/18 10:24:24;;;;;;;28.25;18.27;;;;;;;6.22;38.29;101806.88;5001006;28;96973;-72
2021/03/18 10:26:51;;;;;;;23.80;17.02;;;;;;;6.29;37.90;101802.88;4954625;28;97678;-72
2021/03/18 10:29:19;;;;;;;28.33;17.83;;;;;;;6.38;37.98;101798.97;4952458;28;96844;-72
2021/03/18 10:31:46;;;;;;;26.33;16.50;;;;;;;6.50;37.63;101793.44;4968075;28;97128;-73
2021/03/18 10:34:23;;;;;;;24.67;16.85;;;;;;;6.60;37.88;101790.44;4989157;28;96982;-73
2021/03/18 10:36:50;;;;;;;23.73;16.73;;;;;;;6.64;37.67;101782.78;4962183;28;96876;-72
2021/03/18 10:39:22;;;;;;;22.42;15.75;;;;;;;6.62;37.28;101788.78;4999430;27;99201;-72
2021/03/18 10:41:51;;;;;;;19.38;13.75;;;;;;;6.74;37.62;101779.81;4937850;28;97251;-72
2021/03/18 10:44:19;;;;;;;21.50;14.55;;;;;;;6.73;37.47;101782.34;4966899;28;97083;-72
2021/03/18 10:46:46;;;;;;;16.60;12.88;;;;;;;6.69;37.34;101770.69;4986027;28;99560;-71
2021/03/18 10:49:15;;;;;;;19.70;13.55;;;;;;;6.67;37.45;101771.47;5002434;28;99529;-71
2021/03/18 10:51:44;;;;;;;18.92;13.45;;;;;;;6.63;37.47;101761.53;4951142;28;98559;-71
2021/03/18 10:54:17;;;;;;;18.02;13.07;;;;;;;6.51;36.72;101759.16;4969986;28;97522;-72
2021/03/18 10:56:45;;;;;;;20.67;14.45;;;;;;;6.53;37.39;101759.22;4971516;28;97769;-72
2021/03/18 10:59:17;;;;;;;21.15;14.55;;;;;;;6.55;36.86;101755.84;4983579;28;98492;-71
2021/03/18 11:01:44;;;;;;;17.63;11.75;;;;;;;6.49;37.37;101750.22;4953797;28;97358;-71
2021/03/18 11:04:12;;;;;;;18.65;13.27;;;;;;;6.53;37.25;101751.28;4989004;28;96804;-74
2021/03/18 11:06:47;;;;;;;21.77;13.02;;;;;;;6.55;37.60;101749.63;4970651;28;96798;-72
2021/03/18 11:09:14;;;;;;;20.70;13.32;;;;;;;6.58;37.35;101744.53;4970988;28;98286;-73
2021/03/18 11:11:53;;;;;;;19.38;12.52;;;;;;;6.56;36.21;101746.19;4945234;28;97083;-71
2021/03/18 11:14:21;;;;;;;15.23;11.82;;;;;;;6.60;37.34;101746.41;4955189;28;97343;-73
2021/03/18 11:16:48;;;;;;;17.38;12.18;;;;;;;6.62;37.04;101743.84;4970725;28;97639;-71
2021/03/18 11:19:21;;;;;;;14.20;11.15;;;;;;;6.67;36.84;101739.72;4967291;28;98998;-73
2021/03/18 11:22:00;;;;;;;15.57;11.77;;;;;;;6.70;36.88;101729.28;4972969;28;97346;-72
2021/03/18 11:24:47;;;;;;;15.93;10.82;;;;;;;6.73;37.30;101734.72;4974204;28;97065;-72
2021/03/18 11:27:14;;;;;;;16.55;11.30;;;;;;;6.72;37.17;101723.25;4971983;28;98339;-73
2021/03/18 11:29:43;;;;;;;11.65;9.88;;;;;;;6.71;36.56;101731.09;5002104;28;97000;-73
2021/03/18 11:32:19;;;;;;;15.80;11.70;;;;;;;6.72;36.61;101727.63;4996519;28;96752;-71
2021/03/18 11:34:53;;;;;;;15.20;11.23;;;;;;;6.72;37.14;101719.69;4968568;28;96802;-72
2021/03/18 11:37:20;;;;;;;13.15;10.57;;;;;;;6.78;37.16;101718.25;4968300;28;98084;-73
2021/03/18 11:39:47;;;;;;;13.45;9.88;;;;;;;6.86;36.81;101713.38;4954413;28;99072;-73